This is the latest recevied weather packets stored in our database for station/object OE-11049. If no packets are shown the sender has not sent any weather packets the latest 10 day(s).
| Time | Temp. | Humidity | Pressure | Rain* | Wind** | Luminosity | Snow |
|---|---|---|---|---|---|---|---|
| 1787613917 | 18.33° C | 57% | 1011.6 hPa | 0 mm | - | 0 W/m² | - |
| 1787613317 | 18.33° C | 56% | 1012 hPa | 0 mm | - | 0 W/m² | - |
| 1787612716 | 18.89° C | 55% | 1012 hPa | 0 mm | - | 0 W/m² | - |
| 1787612117 | 18.89° C | 56% | 1012.1 hPa | 0 mm | - | 0 W/m² | - |
| 1787611290 | 18.89° C | 55% | 1012.2 hPa | 0 mm | - | 0 W/m² | - |
| 1787610916 | 18.89° C | 56% | 1012.2 hPa | 0 mm | - | 0 W/m² | - |
| 1787610317 | 18.89° C | 56% | 1012.4 hPa | 0 mm | - | 0 W/m² | - |
| 1787609490 | 18.89° C | 56% | 1012.5 hPa | 0 mm | - | 0 W/m² | - |
| 1787609117 | 19.44° C | 54% | 1012.6 hPa | 0 mm | - | 0 W/m² | - |
| 1787607690 | 19.44° C | 53% | 1012.5 hPa | 0 mm | - | 0 W/m² | - |
| 1787607317 | 20° C | 52% | 1012.5 hPa | 0 mm | - | 0 W/m² | - |
| 1787606716 | 19.44° C | 56% | 1012.8 hPa | 0 mm | - | 0 W/m² | - |
| 1787605890 | 19.44° C | 53% | 1013.1 hPa | 0 mm | - | 0 W/m² | - |
| 1787605517 | 19.44° C | 56% | 1013.5 hPa | 0 mm | - | 0 W/m² | - |
| 1787604917 | 18.89° C | 63% | 1013.6 hPa | 0 mm | - | 0 W/m² | - |
| 1787604090 | 19.44° C | 61% | 1013.5 hPa | 0 mm | - | 0 W/m² | - |
| 1787603716 | 18.89° C | 62% | 1013.4 hPa | 0 mm | - | 0 W/m² | - |
| 1787603117 | 19.44° C | 59% | 1013.5 hPa | 0 mm | - | 0 W/m² | - |
| 1787602528 | 18.89° C | 65% | 1013.6 hPa | 0 mm | - | 0 W/m² | - |
| 1787601917 | 18.89° C | 67% | 1013.9 hPa | 0 mm | - | 0 W/m² | - |
| 1787601317 | 18.89° C | 66% | 1014 hPa | 0 mm | - | 0 W/m² | - |
| 1787600490 | 19.44° C | 61% | 1014.1 hPa | 0 mm | - | 0 W/m² | - |
| 1787600117 | 19.44° C | 62% | 1014.1 hPa | 0 mm | - | 0 W/m² | - |
| 1787599516 | 20° C | 59% | 1013.8 hPa | 0 mm | - | 0 W/m² | - |
| 1787598690 | 20° C | 60% | 1014 hPa | 0 mm | - | 0 W/m² | - |
* Rain latest hour (hover to see other rain measurements)
** Current wind speed in m/s (hover to see current wind gust speed)